createdAt,value
2022-08-05T00:00:18.909Z,62.69
2022-08-05T00:02:51.542Z,63.24
2022-08-05T00:05:27.157Z,63.11
2022-08-05T00:08:32.827Z,63.05
2022-08-05T00:11:00.506Z,63.06
2022-08-05T00:13:38.181Z,63.29
2022-08-05T00:16:12.610Z,62.95
2022-08-05T00:18:49.705Z,63.39
2022-08-05T00:21:19.726Z,63.39
2022-08-05T00:23:53.642Z,63.96
2022-08-05T00:26:35.433Z,63.87
2022-08-05T00:29:02.339Z,63.76
2022-08-05T00:31:53.216Z,64.24
2022-08-05T00:34:54.892Z,63.42
2022-08-05T00:37:09.987Z,62.84
2022-08-05T00:39:44.317Z,61.82
2022-08-05T00:42:36.964Z,61.96
2022-08-05T00:45:08.787Z,61.70
2022-08-05T00:47:56.553Z,61.72
2022-08-05T00:50:25.988Z,62.52
2022-08-05T00:52:55.329Z,62.18
2022-08-05T00:55:34.209Z,62.82
2022-08-05T00:58:12.798Z,63.08
2022-08-05T01:00:40.874Z,63.04
2022-08-05T01:03:22.270Z,62.87
2022-08-05T01:05:54.610Z,63.44
2022-08-05T01:08:42.368Z,63.20
2022-08-05T01:11:22.535Z,63.62
2022-08-05T01:14:16.774Z,64.72
2022-08-05T01:17:17.521Z,65.58
2022-08-05T01:20:13.054Z,65.80
2022-08-05T01:23:14.237Z,65.86
2022-08-05T01:26:04.513Z,65.83
2022-08-05T01:28:39.483Z,65.86
2022-08-05T01:31:32.639Z,66.05
2022-08-05T01:34:51.346Z,67.64
2022-08-05T01:37:52.077Z,67.66
2022-08-05T01:40:28.954Z,67.76
2022-08-05T01:42:58.198Z,68.23
2022-08-05T01:45:28.085Z,68.52
2022-08-05T01:48:03.173Z,68.50
2022-08-05T01:50:41.134Z,68.54
2022-08-05T01:53:54.794Z,68.48
2022-08-05T01:56:09.906Z,68.66
2022-08-05T01:58:44.775Z,69.35
2022-08-05T02:01:14.610Z,69.49
2022-08-05T02:03:50.851Z,69.49
2022-08-05T02:06:37.865Z,69.51
2022-08-05T02:09:06.303Z,69.47
2022-08-05T02:12:20.583Z,69.47
2022-08-05T02:14:53.733Z,69.67
2022-08-05T02:18:28.862Z,70.14
2022-08-05T02:20:40.414Z,69.88
2022-08-05T02:23:11.993Z,70.19
2022-08-05T02:25:50.093Z,69.99
2022-08-05T02:28:28.912Z,69.95
2022-08-05T02:31:14.669Z,69.84
2022-08-05T02:33:57.688Z,70.29
2022-08-05T02:36:27.296Z,70.30
2022-08-05T02:38:57.754Z,70.45
2022-08-05T02:41:28.401Z,70.54
2022-08-05T02:44:13.121Z,70.20
2022-08-05T02:46:53.218Z,70.37
2022-08-05T02:49:36.958Z,70.58
2022-08-05T02:52:29.371Z,70.92
2022-08-05T02:54:58.017Z,71.47
2022-08-05T02:58:11.880Z,71.62
2022-08-05T03:00:17.708Z,71.74
2022-08-05T03:02:47.273Z,71.47
2022-08-05T03:05:16.194Z,71.75
2022-08-05T03:08:01.042Z,72.06
2022-08-05T03:10:31.594Z,72.56
2022-08-05T03:15:27.503Z,72.39
2022-08-05T03:17:57.476Z,72.13
2022-08-05T03:20:25.235Z,72.14
2022-08-05T03:22:57.059Z,72.68
2022-08-05T03:25:33.751Z,72.70
2022-08-05T03:28:13.923Z,72.56
2022-08-05T03:30:42.283Z,72.20
2022-08-05T03:33:09.832Z,72.14
2022-08-05T03:35:40.906Z,71.83
2022-08-05T03:38:12.596Z,71.21
2022-08-05T03:40:45.239Z,71.39
2022-08-05T03:44:09.335Z,72.19
2022-08-05T03:46:04.554Z,72.57
2022-08-05T03:48:35.071Z,72.52
2022-08-05T03:52:37.589Z,72.18
2022-08-05T03:55:54.743Z,71.77
2022-08-05T03:57:16.619Z,71.51
2022-08-05T03:59:56.278Z,71.42
2022-08-05T04:02:39.104Z,71.87
2022-08-05T04:05:13.345Z,71.76
2022-08-05T04:07:57.181Z,72.14
2022-08-05T04:10:27.489Z,72.17
2022-08-05T04:12:59.046Z,72.58
2022-08-05T04:15:27.975Z,72.38
2022-08-05T04:18:06.974Z,72.54
2022-08-05T04:20:34.865Z,72.00
2022-08-05T04:23:01.810Z,71.88
2022-08-05T04:25:56.887Z,72.11
2022-08-05T04:28:15.518Z,72.03
2022-08-05T04:30:44.868Z,72.30
2022-08-05T04:33:12.485Z,72.33
2022-08-05T04:36:16.489Z,72.01
2022-08-05T04:38:39.547Z,71.87
2022-08-05T04:41:09.472Z,72.41
2022-08-05T04:43:46.614Z,72.58
2022-08-05T04:46:28.170Z,73.59
2022-08-05T04:48:55.524Z,72.50
2022-08-05T04:51:25.771Z,71.75
2022-08-05T04:53:57.553Z,70.42
2022-08-05T04:56:34.421Z,69.92
2022-08-05T04:59:22.343Z,69.34
2022-08-05T05:02:07.853Z,69.24
2022-08-05T05:04:44.159Z,69.13
2022-08-05T05:07:18.096Z,68.91
2022-08-05T05:09:45.784Z,68.35
2022-08-05T05:12:12.686Z,68.88
2022-08-05T05:14:49.089Z,68.79
2022-08-05T05:17:23.264Z,68.69
2022-08-05T05:19:55.093Z,68.53
2022-08-05T05:22:26.404Z,67.96
2022-08-05T05:24:59.885Z,67.77
2022-08-05T05:27:44.395Z,66.21
2022-08-05T05:30:15.308Z,66.00
2022-08-05T05:33:00.503Z,65.60
2022-08-05T05:35:37.705Z,65.45
2022-08-05T05:38:09.057Z,65.10
2022-08-05T05:40:45.060Z,64.70
2022-08-05T05:43:22.135Z,65.00
2022-08-05T05:46:04.018Z,64.59
2022-08-05T05:48:32.351Z,64.51
2022-08-05T05:51:15.080Z,64.15
2022-08-05T05:53:54.396Z,63.31
2022-08-05T05:56:32.750Z,62.65
2022-08-05T05:59:08.046Z,62.16
2022-08-05T06:01:39.453Z,62.18
2022-08-05T06:04:13.124Z,61.25
2022-08-05T06:06:47.817Z,62.07
2022-08-05T06:09:50.168Z,60.54
2022-08-05T06:12:04.207Z,58.92
2022-08-05T06:14:32.003Z,59.06
2022-08-05T06:17:01.893Z,57.69
2022-08-05T06:19:35.388Z,56.59
2022-08-05T06:22:07.939Z,55.29
2022-08-05T06:24:41.718Z,54.12
2022-08-05T06:28:08.811Z,54.05
2022-08-05T06:30:17.963Z,52.88
2022-08-05T06:32:47.086Z,52.12
2022-08-05T06:35:15.486Z,51.74
2022-08-05T06:38:04.241Z,52.66
2022-08-05T06:40:35.138Z,51.97
2022-08-05T06:43:58.488Z,50.46
2022-08-05T06:46:04.126Z,48.95
2022-08-05T06:48:50.357Z,48.51
2022-08-05T06:51:29.334Z,47.82
2022-08-05T06:54:02.705Z,46.61
2022-08-05T06:56:34.330Z,46.53
2022-08-05T06:59:03.687Z,46.60
2022-08-05T07:01:40.789Z,45.52
2022-08-05T07:04:10.072Z,44.75
2022-08-05T07:06:37.011Z,44.07
2022-08-05T07:09:04.971Z,43.63
2022-08-05T07:11:37.278Z,42.25
2022-08-05T07:14:28.885Z,42.54
2022-08-05T07:17:58.903Z,40.73
2022-08-05T07:20:31.471Z,41.48
2022-08-05T07:22:38.450Z,39.76
2022-08-05T07:25:54.417Z,39.06
2022-08-05T07:27:58.445Z,38.14
2022-08-05T07:30:38.744Z,38.67
2022-08-05T07:33:10.678Z,38.34
2022-08-05T07:36:05.227Z,39.52
2022-08-05T07:38:33.977Z,39.85
2022-08-05T07:42:08.541Z,39.06
2022-08-05T07:43:59.361Z,40.63
2022-08-05T07:46:28.930Z,40.89
2022-08-05T07:49:01.679Z,40.39
2022-08-05T07:51:41.079Z,41.77
2022-08-05T07:54:23.297Z,41.98
2022-08-05T07:57:13.595Z,41.39
2022-08-05T07:59:41.417Z,40.47
2022-08-05T08:02:15.733Z,39.42
2022-08-05T08:04:45.674Z,38.78
2022-08-05T08:07:13.817Z,38.55
2022-08-05T08:09:40.850Z,38.28
2022-08-05T08:12:35.549Z,38.38
2022-08-05T08:14:54.869Z,37.63
2022-08-05T08:17:22.047Z,37.66
2022-08-05T08:20:23.515Z,37.84
2022-08-05T08:22:37.424Z,36.92
2022-08-05T08:25:16.163Z,37.58
2022-08-05T08:27:47.329Z,37.24
2022-08-05T08:30:27.696Z,36.65
2022-08-05T08:33:02.668Z,37.70
2022-08-05T08:35:34.838Z,37.51
2022-08-05T08:38:08.306Z,38.00
2022-08-05T08:40:39.526Z,36.88
2022-08-05T08:45:01.618Z,37.15
2022-08-05T08:45:55.185Z,37.84
2022-08-05T08:48:41.460Z,38.09
2022-08-05T08:51:54.649Z,37.39
2022-08-05T08:53:56.722Z,37.60
2022-08-05T08:56:26.960Z,37.88
2022-08-05T08:58:54.588Z,37.72
2022-08-05T09:01:22.005Z,37.39
2022-08-05T09:03:57.510Z,37.40
2022-08-05T09:06:30.883Z,36.83
2022-08-05T09:09:02.591Z,36.01
2022-08-05T09:11:51.931Z,36.52
2022-08-05T09:14:57.715Z,35.57
2022-08-05T09:17:41.220Z,36.06
2022-08-05T09:20:02.492Z,35.24
2022-08-05T09:23:05.259Z,35.19
2022-08-05T09:25:59.896Z,34.09
2022-08-05T09:28:32.615Z,35.77
2022-08-05T09:32:38.678Z,36.02
2022-08-05T09:34:11.743Z,34.64
2022-08-05T09:36:55.323Z,35.76
2022-08-05T09:39:41.200Z,33.52
2022-08-05T09:42:28.277Z,33.42
2022-08-05T09:45:03.423Z,34.46
2022-08-05T09:47:55.673Z,34.05
2022-08-05T09:50:38.407Z,34.76
2022-08-05T09:53:23.062Z,33.93
2022-08-05T09:56:04.474Z,32.21
2022-08-05T09:58:32.097Z,32.88
2022-08-05T10:01:07.271Z,33.47
2022-08-05T10:04:10.366Z,33.11
2022-08-05T10:06:40.569Z,33.42
2022-08-05T10:09:28.384Z,33.19
2022-08-05T10:12:30.220Z,33.16
2022-08-05T10:15:21.901Z,33.19
2022-08-05T10:18:16.673Z,32.64
2022-08-05T10:20:47.943Z,33.57
2022-08-05T10:23:55.176Z,33.35
2022-08-05T10:26:51.686Z,32.92
2022-08-05T10:29:01.140Z,32.48
2022-08-05T10:32:53.222Z,33.06
2022-08-05T10:34:17.013Z,33.04
2022-08-05T10:36:44.818Z,33.66
2022-08-05T10:39:59.075Z,33.90
2022-08-05T10:42:32.378Z,33.69
2022-08-05T10:45:21.229Z,32.49
2022-08-05T10:48:29.731Z,31.86
2022-08-05T10:51:22.088Z,32.61
2022-08-05T10:53:58.544Z,32.35
2022-08-05T10:56:43.957Z,31.98
2022-08-05T11:00:02.189Z,30.76
2022-08-05T11:02:14.658Z,30.29
2022-08-05T11:05:06.621Z,30.69
2022-08-05T11:08:02.711Z,31.06
2022-08-05T11:10:27.589Z,29.49
2022-08-05T11:12:57.914Z,30.96
2022-08-05T11:15:59.535Z,30.17
2022-08-05T11:18:26.710Z,29.54
2022-08-05T11:20:54.581Z,29.98
2022-08-05T11:24:03.111Z,29.55
2022-08-05T11:26:28.973Z,30.46
2022-08-05T11:29:12.633Z,29.72
2022-08-05T11:31:57.072Z,29.93
2022-08-05T11:34:47.599Z,30.58
2022-08-05T11:38:26.510Z,31.28
2022-08-05T11:41:12.756Z,30.34
2022-08-05T11:44:07.597Z,29.71
2022-08-05T11:46:58.682Z,29.10
2022-08-05T11:49:34.613Z,30.32
2022-08-05T11:52:08.724Z,29.19
2022-08-05T11:54:40.563Z,28.57
2022-08-05T11:57:24.258Z,27.38
2022-08-05T11:59:53.596Z,28.42
2022-08-05T12:02:30.773Z,28.25
2022-08-05T12:05:07.617Z,29.68
2022-08-05T12:08:08.263Z,29.00
2022-08-05T12:10:38.506Z,27.22
2022-08-05T12:13:27.971Z,28.01
2022-08-05T12:16:14.521Z,28.64
2022-08-05T12:18:52.380Z,29.13
2022-08-05T12:21:21.378Z,28.57
2022-08-05T12:24:09.721Z,28.13
2022-08-05T12:26:52.869Z,27.78
2022-08-05T12:29:25.529Z,28.19
2022-08-05T12:32:02.006Z,27.48
2022-08-05T12:34:33.566Z,27.82
2022-08-05T12:37:21.431Z,28.45
2022-08-05T12:39:54.772Z,27.68
2022-08-05T12:42:31.108Z,27.34
2022-08-05T12:45:18.548Z,27.09
2022-08-05T12:48:01.735Z,26.99
2022-08-05T12:50:35.980Z,25.97
2022-08-05T12:53:02.842Z,25.66
2022-08-05T12:55:32.795Z,25.86
2022-08-05T12:58:48.355Z,26.72
2022-08-05T13:02:02.135Z,25.97
2022-08-05T13:03:41.575Z,26.17
2022-08-05T13:06:16.110Z,26.41
2022-08-05T13:08:50.612Z,25.01
2022-08-05T13:12:02.931Z,24.68
2022-08-05T13:14:24.836Z,24.86
2022-08-05T13:17:32.061Z,24.06
2022-08-05T13:20:19.179Z,26.74
2022-08-05T13:22:52.445Z,26.93
2022-08-05T13:25:22.013Z,25.85
2022-08-05T13:28:07.865Z,25.02
2022-08-05T13:30:39.048Z,25.73
2022-08-05T13:33:06.213Z,26.49
2022-08-05T13:35:47.088Z,25.74
2022-08-05T13:38:30.507Z,24.82
2022-08-05T13:41:00.194Z,25.88
2022-08-05T13:43:43.322Z,26.28
2022-08-05T13:46:13.712Z,25.82
2022-08-05T13:48:58.261Z,25.67
2022-08-05T13:51:40.253Z,26.76
2022-08-05T13:54:11.898Z,28.32
2022-08-05T13:56:44.937Z,28.64
2022-08-05T13:59:19.506Z,30.31
2022-08-05T14:01:59.068Z,29.69
2022-08-05T14:05:00.583Z,29.35
2022-08-05T14:08:00.419Z,28.27
2022-08-05T14:10:29.138Z,25.97
2022-08-05T14:12:59.566Z,25.65
2022-08-05T14:16:05.914Z,26.94
2022-08-05T14:18:18.071Z,25.60
2022-08-05T14:20:49.141Z,24.73
2022-08-05T14:23:25.649Z,25.90
2022-08-05T14:25:59.047Z,25.27
2022-08-05T14:28:30.886Z,25.26
2022-08-05T14:31:01.708Z,25.38
2022-08-05T14:33:56.699Z,24.75
2022-08-05T14:36:20.559Z,25.67
2022-08-05T14:38:48.894Z,26.15
2022-08-05T14:41:17.777Z,26.22
2022-08-05T14:43:57.592Z,27.00
2022-08-05T14:46:29.726Z,25.69
2022-08-05T14:49:07.231Z,25.82
2022-08-05T14:51:37.462Z,25.29
2022-08-05T14:54:26.619Z,24.63
2022-08-05T14:56:53.735Z,24.35
2022-08-05T14:59:22.044Z,23.14
2022-08-05T15:01:49.907Z,23.30
2022-08-05T15:04:20.595Z,23.26
2022-08-05T15:06:52.974Z,23.42
2022-08-05T15:09:52.656Z,22.64
2022-08-05T15:12:11.741Z,20.81
2022-08-05T15:14:50.325Z,21.72
2022-08-05T15:17:47.054Z,21.29
2022-08-05T15:20:18.255Z,21.51
2022-08-05T15:22:52.396Z,21.20
2022-08-05T15:25:51.484Z,20.47
2022-08-05T15:28:14.547Z,21.14
2022-08-05T15:30:43.639Z,22.16
2022-08-05T15:33:12.783Z,22.94
2022-08-05T15:35:59.613Z,23.42
2022-08-05T15:38:35.373Z,23.13
2022-08-05T15:41:22.624Z,22.85
2022-08-05T15:43:51.898Z,23.06
2022-08-05T15:46:24.762Z,24.54
2022-08-05T15:49:01.185Z,25.30
2022-08-05T15:52:12.541Z,25.56
2022-08-05T15:54:34.372Z,26.34
2022-08-05T15:57:02.240Z,27.54
2022-08-05T15:59:29.110Z,29.26
2022-08-05T16:01:56.339Z,29.47
2022-08-05T16:04:27.959Z,30.69
2022-08-05T16:06:55.449Z,30.78
2022-08-05T16:09:23.713Z,33.31
2022-08-05T16:11:53.194Z,32.70
2022-08-05T16:14:22.423Z,33.60
2022-08-05T16:16:50.307Z,32.24
2022-08-05T16:19:25.296Z,32.42
2022-08-05T16:22:00.834Z,34.15
2022-08-05T16:24:39.998Z,33.83
2022-08-05T16:27:09.228Z,33.76
2022-08-05T16:29:37.067Z,34.10
2022-08-05T16:32:06.623Z,34.74
2022-08-05T16:34:36.778Z,32.56
2022-08-05T16:38:03.039Z,33.41
2022-08-05T16:40:04.666Z,33.60
2022-08-05T16:42:35.121Z,33.64
2022-08-05T16:46:02.842Z,35.70
2022-08-05T16:47:53.558Z,36.41
2022-08-05T16:50:23.349Z,36.73
2022-08-05T16:52:50.480Z,38.21
2022-08-05T16:55:20.574Z,39.66
2022-08-05T16:57:59.915Z,38.59
2022-08-05T17:00:34.401Z,38.86
2022-08-05T17:03:03.744Z,39.29
2022-08-05T17:05:37.100Z,39.79
2022-08-05T17:08:04.966Z,36.50
2022-08-05T17:10:31.842Z,38.77
2022-08-05T17:12:58.713Z,40.27
2022-08-05T17:15:29.317Z,39.39
2022-08-05T17:18:15.871Z,38.93
2022-08-05T17:20:44.236Z,41.01
2022-08-05T17:24:03.122Z,40.74
2022-08-05T17:25:59.452Z,41.83
2022-08-05T17:28:26.322Z,42.06
2022-08-05T17:30:55.852Z,41.37
2022-08-05T17:33:23.099Z,41.76
2022-08-05T17:36:08.809Z,43.17
2022-08-05T17:38:37.094Z,42.69
2022-08-05T17:41:07.191Z,42.35
2022-08-05T17:43:53.197Z,43.25
2022-08-05T17:46:21.085Z,44.25
2022-08-05T17:48:48.233Z,43.31
2022-08-05T17:51:21.862Z,43.55
2022-08-05T17:53:50.816Z,43.67
2022-08-05T17:56:22.646Z,42.34
2022-08-05T17:58:49.903Z,43.09
2022-08-05T18:01:18.857Z,43.47
2022-08-05T18:03:59.053Z,44.66
2022-08-05T18:06:31.475Z,44.44
2022-08-05T18:08:59.457Z,45.23
2022-08-05T18:11:33.463Z,45.21
2022-08-05T18:14:04.218Z,45.62
2022-08-05T18:16:33.551Z,45.63
2022-08-05T18:19:00.669Z,45.60
2022-08-05T18:21:28.118Z,45.62
2022-08-05T18:24:14.729Z,46.95
2022-08-05T18:26:41.866Z,47.65
2022-08-05T18:29:10.806Z,48.75
2022-08-05T18:31:38.216Z,49.05
2022-08-05T18:34:12.625Z,50.81
2022-08-05T18:36:40.014Z,50.33
2022-08-05T18:39:09.855Z,50.65
2022-08-05T18:41:58.816Z,50.46
2022-08-05T18:44:35.093Z,50.37
2022-08-05T18:47:15.738Z,50.29
2022-08-05T18:50:10.443Z,46.73
2022-08-05T18:52:41.767Z,45.80
2022-08-05T18:55:19.233Z,44.77
2022-08-05T18:57:52.767Z,42.96
2022-08-05T19:00:29.220Z,46.96
2022-08-05T19:03:03.737Z,48.25
2022-08-05T19:06:12.178Z,48.69
2022-08-05T19:08:18.801Z,49.42
2022-08-05T19:10:45.789Z,49.38
2022-08-05T19:13:15.989Z,49.87
2022-08-05T19:15:58.802Z,50.07
2022-08-05T19:18:30.193Z,49.89
2022-08-05T19:20:59.477Z,49.64
2022-08-05T19:24:07.615Z,49.74
2022-08-05T19:26:13.954Z,50.25
2022-08-05T19:28:44.451Z,49.87
2022-08-05T19:31:13.545Z,50.30
2022-08-05T19:33:48.324Z,50.45
2022-08-05T19:36:27.012Z,50.90
2022-08-05T19:39:00.721Z,50.72
2022-08-05T19:42:05.549Z,51.26
2022-08-05T19:44:17.377Z,51.38
2022-08-05T19:46:45.697Z,51.63
2022-08-05T19:49:17.161Z,52.24
2022-08-05T19:52:05.206Z,51.88
2022-08-05T19:54:34.731Z,49.85
2022-08-05T19:57:08.619Z,48.59
2022-08-05T19:59:56.297Z,49.25
2022-08-05T20:02:27.795Z,50.07
2022-08-05T20:04:58.479Z,50.01
2022-08-05T20:07:45.816Z,49.68
2022-08-05T20:10:15.989Z,48.45
2022-08-05T20:12:47.757Z,48.62
2022-08-05T20:15:47.843Z,50.26
2022-08-05T20:18:10.354Z,49.88
2022-08-05T20:20:56.820Z,49.42
2022-08-05T20:23:40.573Z,50.92
2022-08-05T20:26:16.157Z,52.46
2022-08-05T20:28:47.861Z,55.37
2022-08-05T20:31:16.471Z,56.96
2022-08-05T20:33:44.900Z,60.04
2022-08-05T20:36:16.230Z,63.47
2022-08-05T20:38:53.461Z,66.08
2022-08-05T20:41:26.639Z,66.37
2022-08-05T20:43:59.154Z,67.97
2022-08-05T20:46:30.094Z,68.69
2022-08-05T20:48:57.118Z,68.45
2022-08-05T20:51:23.958Z,69.66
2022-08-05T20:53:56.380Z,69.14
2022-08-05T20:56:28.804Z,69.41
2022-08-05T20:59:04.080Z,70.26
2022-08-05T21:01:41.592Z,71.78
2022-08-05T21:04:10.563Z,73.55
2022-08-05T21:06:45.824Z,72.69
2022-08-05T21:09:14.935Z,72.59
2022-08-05T21:12:08.943Z,71.67
2022-08-05T21:14:35.141Z,72.93
2022-08-05T21:17:05.234Z,72.97
2022-08-05T21:19:47.207Z,73.28
2022-08-05T21:22:18.589Z,72.41
2022-08-05T21:24:52.363Z,72.60
2022-08-05T21:27:25.422Z,73.66
2022-08-05T21:29:58.309Z,74.55
2022-08-05T21:32:29.258Z,74.47
2022-08-05T21:35:16.695Z,75.52
2022-08-05T21:37:53.119Z,75.54
2022-08-05T21:40:22.571Z,76.79
2022-08-05T21:42:52.615Z,76.97
2022-08-05T21:45:24.527Z,77.12
2022-08-05T21:47:56.501Z,76.52
2022-08-05T21:50:26.347Z,76.22
2022-08-05T21:52:53.792Z,77.58
2022-08-05T21:56:01.136Z,77.53
2022-08-05T21:58:13.015Z,77.17
2022-08-05T22:00:40.273Z,76.47
2022-08-05T22:03:09.912Z,75.51
2022-08-05T22:05:48.932Z,75.63
2022-08-05T22:08:22.177Z,75.69
2022-08-05T22:10:53.323Z,75.66
2022-08-05T22:14:19.561Z,76.33
2022-08-05T22:16:32.099Z,77.35
2022-08-05T22:18:54.250Z,78.17
2022-08-05T22:21:25.859Z,79.05
2022-08-05T22:24:13.288Z,79.23
2022-08-05T22:27:17.650Z,79.14
2022-08-05T22:29:44.657Z,79.27
2022-08-05T22:32:12.828Z,78.87
2022-08-05T22:34:44.581Z,78.65
2022-08-05T22:37:12.763Z,78.26
2022-08-05T22:39:39.798Z,78.01
2022-08-05T22:42:12.694Z,76.93
2022-08-05T22:44:48.431Z,78.32
2022-08-05T22:47:28.594Z,78.68
2022-08-05T22:50:20.226Z,79.54
2022-08-05T22:52:46.726Z,78.66
2022-08-05T22:55:19.482Z,78.47
2022-08-05T22:57:49.108Z,78.97
2022-08-05T23:00:17.816Z,78.94
2022-08-05T23:02:46.883Z,79.17
2022-08-05T23:05:15.790Z,79.28
2022-08-05T23:07:45.244Z,79.01
2022-08-05T23:10:20.067Z,77.94
2022-08-05T23:12:54.679Z,78.96
2022-08-05T23:15:29.943Z,78.60
2022-08-05T23:18:03.536Z,78.63
2022-08-05T23:20:33.770Z,78.43
2022-08-05T23:23:08.394Z,78.29
2022-08-05T23:25:51.552Z,78.45
2022-08-05T23:28:20.933Z,77.95
2022-08-05T23:30:53.470Z,77.78
2022-08-05T23:33:25.837Z,78.18
2022-08-05T23:35:55.163Z,80.42
2022-08-05T23:38:24.532Z,81.29
2022-08-05T23:40:52.576Z,81.82
2022-08-05T23:43:25.245Z,82.56
2022-08-05T23:46:19.953Z,82.37
2022-08-05T23:49:00.490Z,82.42
2022-08-05T23:51:53.940Z,81.83
2022-08-05T23:54:36.260Z,82.42
2022-08-05T23:57:05.414Z,81.82
